sensor_id;sensor_type;location;lat;lon;timestamp;P1;durP1;ratioP1;P2;durP2;ratioP2
11313;SDS011;5712;48.858;9.206;2023-06-22T00:02:25;10.27;;;8.10;;
11313;SDS011;5712;48.858;9.206;2023-06-22T00:04:52;8.43;;;7.63;;
11313;SDS011;5712;48.858;9.206;2023-06-22T00:07:18;8.30;;;7.50;;
11313;SDS011;5712;48.858;9.206;2023-06-22T00:09:45;8.50;;;7.70;;
11313;SDS011;5712;48.858;9.206;2023-06-22T00:12:11;8.97;;;8.03;;
11313;SDS011;5712;48.858;9.206;2023-06-22T00:14:38;8.97;;;8.07;;
11313;SDS011;5712;48.858;9.206;2023-06-22T00:17:04;8.70;;;7.80;;
11313;SDS011;5712;48.858;9.206;2023-06-22T00:19:32;8.23;;;7.43;;
11313;SDS011;5712;48.858;9.206;2023-06-22T00:22:00;9.83;;;8.53;;
11313;SDS011;5712;48.858;9.206;2023-06-22T00:24:28;9.03;;;8.17;;
11313;SDS011;5712;48.858;9.206;2023-06-22T00:26:54;9.77;;;8.50;;
11313;SDS011;5712;48.858;9.206;2023-06-22T00:29:21;9.40;;;8.50;;
11313;SDS011;5712;48.858;9.206;2023-06-22T00:31:47;9.50;;;8.60;;
11313;SDS011;5712;48.858;9.206;2023-06-22T00:34:14;9.27;;;8.37;;
11313;SDS011;5712;48.858;9.206;2023-06-22T00:36:43;9.73;;;8.63;;
11313;SDS011;5712;48.858;9.206;2023-06-22T00:39:09;9.37;;;8.47;;
11313;SDS011;5712;48.858;9.206;2023-06-22T00:41:36;9.03;;;8.13;;
11313;SDS011;5712;48.858;9.206;2023-06-22T00:44:02;9.40;;;8.27;;
11313;SDS011;5712;48.858;9.206;2023-06-22T00:46:29;8.87;;;7.97;;
11313;SDS011;5712;48.858;9.206;2023-06-22T00:48:55;9.23;;;8.20;;
11313;SDS011;5712;48.858;9.206;2023-06-22T00:51:22;9.83;;;8.93;;
11313;SDS011;5712;48.858;9.206;2023-06-22T00:53:51;10.13;;;9.13;;
11313;SDS011;5712;48.858;9.206;2023-06-22T00:56:18;9.07;;;8.17;;
11313;SDS011;5712;48.858;9.206;2023-06-22T00:58:49;10.70;;;9.60;;
11313;SDS011;5712;48.858;9.206;2023-06-22T01:01:18;10.03;;;9.00;;
11313;SDS011;5712;48.858;9.206;2023-06-22T01:03:47;11.30;;;9.33;;
11313;SDS011;5712;48.858;9.206;2023-06-22T01:06:16;11.47;;;8.90;;
11313;SDS011;5712;48.858;9.206;2023-06-22T01:08:53;12.73;;;10.57;;
11313;SDS011;5712;48.858;9.206;2023-06-22T01:11:28;11.37;;;9.50;;
11313;SDS011;5712;48.858;9.206;2023-06-22T01:14:03;11.07;;;9.57;;
11313;SDS011;5712;48.858;9.206;2023-06-22T01:16:34;10.47;;;9.37;;
11313;SDS011;5712;48.858;9.206;2023-06-22T01:19:05;12.30;;;9.33;;
11313;SDS011;5712;48.858;9.206;2023-06-22T01:21:43;10.43;;;9.33;;
11313;SDS011;5712;48.858;9.206;2023-06-22T01:24:15;10.97;;;9.87;;
11313;SDS011;5712;48.858;9.206;2023-06-22T01:26:48;9.87;;;8.87;;
11313;SDS011;5712;48.858;9.206;2023-06-22T01:29:24;10.17;;;9.17;;
11313;SDS011;5712;48.858;9.206;2023-06-22T01:31:53;10.47;;;9.23;;
11313;SDS011;5712;48.858;9.206;2023-06-22T01:34:22;11.40;;;9.20;;
11313;SDS011;5712;48.858;9.206;2023-06-22T01:36:50;11.90;;;9.30;;
11313;SDS011;5712;48.858;9.206;2023-06-22T01:39:18;11.43;;;8.80;;
11313;SDS011;5712;48.858;9.206;2023-06-22T01:41:47;12.77;;;10.10;;
11313;SDS011;5712;48.858;9.206;2023-06-22T01:44:14;9.70;;;8.70;;
11313;SDS011;5712;48.858;9.206;2023-06-22T01:46:43;9.47;;;8.57;;
11313;SDS011;5712;48.858;9.206;2023-06-22T01:49:11;9.63;;;7.97;;
11313;SDS011;5712;48.858;9.206;2023-06-22T01:51:38;10.87;;;8.80;;
11313;SDS011;5712;48.858;9.206;2023-06-22T01:54:05;9.43;;;8.27;;
11313;SDS011;5712;48.858;9.206;2023-06-22T01:56:33;8.87;;;7.97;;
11313;SDS011;5712;48.858;9.206;2023-06-22T01:59:00;10.07;;;8.57;;
11313;SDS011;5712;48.858;9.206;2023-06-22T02:01:33;9.60;;;7.97;;
11313;SDS011;5712;48.858;9.206;2023-06-22T02:04:08;9.40;;;8.50;;
11313;SDS011;5712;48.858;9.206;2023-06-22T02:06:41;10.43;;;8.50;;
11313;SDS011;5712;48.858;9.206;2023-06-22T02:09:09;9.27;;;7.93;;
11313;SDS011;5712;48.858;9.206;2023-06-22T02:11:41;9.50;;;8.50;;
11313;SDS011;5712;48.858;9.206;2023-06-22T02:14:10;11.40;;;8.50;;
11313;SDS011;5712;48.858;9.206;2023-06-22T02:16:38;10.30;;;8.77;;
11313;SDS011;5712;48.858;9.206;2023-06-22T02:19:07;10.60;;;7.90;;
11313;SDS011;5712;48.858;9.206;2023-06-22T02:21:34;12.60;;;8.73;;
11313;SDS011;5712;48.858;9.206;2023-06-22T02:24:00;8.83;;;7.70;;
11313;SDS011;5712;48.858;9.206;2023-06-22T02:26:27;8.50;;;7.53;;
11313;SDS011;5712;48.858;9.206;2023-06-22T02:28:54;9.30;;;8.23;;
11313;SDS011;5712;48.858;9.206;2023-06-22T02:31:20;9.93;;;8.90;;
11313;SDS011;5712;48.858;9.206;2023-06-22T02:33:47;9.00;;;7.47;;
11313;SDS011;5712;48.858;9.206;2023-06-22T02:36:15;9.30;;;8.17;;
11313;SDS011;5712;48.858;9.206;2023-06-22T02:38:47;10.77;;;9.33;;
11313;SDS011;5712;48.858;9.206;2023-06-22T02:41:14;11.27;;;9.40;;
11313;SDS011;5712;48.858;9.206;2023-06-22T02:43:43;11.47;;;8.50;;
11313;SDS011;5712;48.858;9.206;2023-06-22T02:46:10;8.90;;;7.87;;
11313;SDS011;5712;48.858;9.206;2023-06-22T02:48:37;11.77;;;8.57;;
11313;SDS011;5712;48.858;9.206;2023-06-22T02:51:04;10.67;;;9.10;;
11313;SDS011;5712;48.858;9.206;2023-06-22T02:53:32;9.20;;;8.30;;
11313;SDS011;5712;48.858;9.206;2023-06-22T02:55:59;10.97;;;9.17;;
11313;SDS011;5712;48.858;9.206;2023-06-22T02:58:26;11.07;;;9.80;;
11313;SDS011;5712;48.858;9.206;2023-06-22T03:00:53;11.53;;;9.40;;
11313;SDS011;5712;48.858;9.206;2023-06-22T03:03:20;10.60;;;9.13;;
11313;SDS011;5712;48.858;9.206;2023-06-22T03:05:46;11.60;;;8.77;;
11313;SDS011;5712;48.858;9.206;2023-06-22T03:08:12;9.07;;;8.17;;
11313;SDS011;5712;48.858;9.206;2023-06-22T03:10:40;9.07;;;8.17;;
11313;SDS011;5712;48.858;9.206;2023-06-22T03:13:07;9.43;;;8.00;;
11313;SDS011;5712;48.858;9.206;2023-06-22T03:15:33;10.80;;;8.60;;
11313;SDS011;5712;48.858;9.206;2023-06-22T03:18:00;12.23;;;8.67;;
11313;SDS011;5712;48.858;9.206;2023-06-22T03:20:26;10.57;;;8.40;;
11313;SDS011;5712;48.858;9.206;2023-06-22T03:22:58;11.27;;;8.43;;
11313;SDS011;5712;48.858;9.206;2023-06-22T03:25:25;13.20;;;10.03;;
11313;SDS011;5712;48.858;9.206;2023-06-22T03:27:53;12.23;;;9.23;;
11313;SDS011;5712;48.858;9.206;2023-06-22T03:30:19;9.40;;;8.03;;
11313;SDS011;5712;48.858;9.206;2023-06-22T03:32:46;9.70;;;8.33;;
11313;SDS011;5712;48.858;9.206;2023-06-22T03:35:12;10.30;;;9.20;;
11313;SDS011;5712;48.858;9.206;2023-06-22T03:37:39;10.27;;;8.70;;
11313;SDS011;5712;48.858;9.206;2023-06-22T03:40:06;9.47;;;8.10;;
11313;SDS011;5712;48.858;9.206;2023-06-22T03:42:34;10.70;;;9.10;;
11313;SDS011;5712;48.858;9.206;2023-06-22T03:45:02;9.37;;;8.47;;
11313;SDS011;5712;48.858;9.206;2023-06-22T03:47:29;10.10;;;9.00;;
11313;SDS011;5712;48.858;9.206;2023-06-22T03:49:56;10.33;;;8.90;;
11313;SDS011;5712;48.858;9.206;2023-06-22T03:52:22;11.37;;;9.17;;
11313;SDS011;5712;48.858;9.206;2023-06-22T03:54:50;8.87;;;7.97;;
11313;SDS011;5712;48.858;9.206;2023-06-22T03:57:16;10.47;;;8.33;;
11313;SDS011;5712;48.858;9.206;2023-06-22T03:59:43;9.77;;;8.77;;
11313;SDS011;5712;48.858;9.206;2023-06-22T04:02:11;11.83;;;9.43;;
11313;SDS011;5712;48.858;9.206;2023-06-22T04:04:37;10.50;;;9.40;;
11313;SDS011;5712;48.858;9.206;2023-06-22T04:07:04;10.50;;;9.07;;
11313;SDS011;5712;48.858;9.206;2023-06-22T04:09:31;12.40;;;9.40;;
11313;SDS011;5712;48.858;9.206;2023-06-22T04:11:58;10.57;;;8.93;;
11313;SDS011;5712;48.858;9.206;2023-06-22T04:14:24;9.87;;;8.67;;
11313;SDS011;5712;48.858;9.206;2023-06-22T04:16:51;12.03;;;8.83;;
11313;SDS011;5712;48.858;9.206;2023-06-22T04:19:19;10.40;;;9.30;;
11313;SDS011;5712;48.858;9.206;2023-06-22T04:21:45;10.83;;;9.57;;
11313;SDS011;5712;48.858;9.206;2023-06-22T04:24:13;10.90;;;9.70;;
11313;SDS011;5712;48.858;9.206;2023-06-22T04:26:40;9.90;;;8.90;;
11313;SDS011;5712;48.858;9.206;2023-06-22T04:29:07;10.53;;;8.93;;
11313;SDS011;5712;48.858;9.206;2023-06-22T04:31:34;10.87;;;8.03;;
11313;SDS011;5712;48.858;9.206;2023-06-22T04:34:02;9.83;;;8.83;;
11313;SDS011;5712;48.858;9.206;2023-06-22T04:36:33;12.13;;;9.43;;
11313;SDS011;5712;48.858;9.206;2023-06-22T04:39:02;10.00;;;8.80;;
11313;SDS011;5712;48.858;9.206;2023-06-22T04:41:30;9.70;;;8.80;;
11313;SDS011;5712;48.858;9.206;2023-06-22T04:44:06;11.67;;;10.07;;
11313;SDS011;5712;48.858;9.206;2023-06-22T04:46:33;12.33;;;9.70;;
11313;SDS011;5712;48.858;9.206;2023-06-22T04:49:03;9.27;;;8.37;;
11313;SDS011;5712;48.858;9.206;2023-06-22T04:51:38;10.93;;;9.17;;
11313;SDS011;5712;48.858;9.206;2023-06-22T04:54:05;12.37;;;9.57;;
11313;SDS011;5712;48.858;9.206;2023-06-22T04:56:32;10.13;;;9.07;;
11313;SDS011;5712;48.858;9.206;2023-06-22T04:58:59;11.70;;;9.30;;
11313;SDS011;5712;48.858;9.206;2023-06-22T05:01:26;11.40;;;8.83;;
11313;SDS011;5712;48.858;9.206;2023-06-22T05:03:52;11.13;;;8.90;;
11313;SDS011;5712;48.858;9.206;2023-06-22T05:06:20;9.37;;;8.13;;
11313;SDS011;5712;48.858;9.206;2023-06-22T05:08:50;9.70;;;8.57;;
11313;SDS011;5712;48.858;9.206;2023-06-22T05:11:17;9.73;;;8.60;;
11313;SDS011;5712;48.858;9.206;2023-06-22T05:13:44;10.97;;;8.80;;
11313;SDS011;5712;48.858;9.206;2023-06-22T05:16:10;12.93;;;9.30;;
11313;SDS011;5712;48.858;9.206;2023-06-22T05:18:37;10.17;;;7.60;;
11313;SDS011;5712;48.858;9.206;2023-06-22T05:21:03;9.73;;;7.90;;
11313;SDS011;5712;48.858;9.206;2023-06-22T05:23:29;13.00;;;9.00;;
11313;SDS011;5712;48.858;9.206;2023-06-22T05:25:57;10.10;;;7.70;;
11313;SDS011;5712;48.858;9.206;2023-06-22T05:28:24;8.80;;;7.87;;
11313;SDS011;5712;48.858;9.206;2023-06-22T05:30:50;9.13;;;7.23;;
11313;SDS011;5712;48.858;9.206;2023-06-22T05:33:17;11.13;;;8.50;;
11313;SDS011;5712;48.858;9.206;2023-06-22T05:35:43;11.10;;;8.13;;
11313;SDS011;5712;48.858;9.206;2023-06-22T05:38:10;9.80;;;8.40;;
11313;SDS011;5712;48.858;9.206;2023-06-22T05:40:36;9.47;;;7.30;;
11313;SDS011;5712;48.858;9.206;2023-06-22T05:43:04;8.63;;;7.70;;
11313;SDS011;5712;48.858;9.206;2023-06-22T05:45:30;11.63;;;7.63;;
11313;SDS011;5712;48.858;9.206;2023-06-22T05:47:57;9.23;;;7.30;;
11313;SDS011;5712;48.858;9.206;2023-06-22T05:50:23;10.60;;;7.50;;
11313;SDS011;5712;48.858;9.206;2023-06-22T05:52:50;9.07;;;7.63;;
11313;SDS011;5712;48.858;9.206;2023-06-22T05:55:16;11.37;;;7.80;;
11313;SDS011;5712;48.858;9.206;2023-06-22T05:57:44;8.63;;;7.73;;
11313;SDS011;5712;48.858;9.206;2023-06-22T06:00:12;8.90;;;7.33;;
11313;SDS011;5712;48.858;9.206;2023-06-22T06:02:40;8.37;;;6.77;;
11313;SDS011;5712;48.858;9.206;2023-06-22T06:05:08;10.73;;;7.33;;
11313;SDS011;5712;48.858;9.206;2023-06-22T06:07:35;10.03;;;7.37;;
11313;SDS011;5712;48.858;9.206;2023-06-22T06:10:02;9.33;;;7.20;;
11313;SDS011;5712;48.858;9.206;2023-06-22T06:12:29;9.27;;;7.30;;
11313;SDS011;5712;48.858;9.206;2023-06-22T06:14:56;8.47;;;7.33;;
11313;SDS011;5712;48.858;9.206;2023-06-22T06:17:24;7.93;;;6.90;;
11313;SDS011;5712;48.858;9.206;2023-06-22T06:19:50;8.60;;;7.70;;
11313;SDS011;5712;48.858;9.206;2023-06-22T06:22:17;9.00;;;7.10;;
11313;SDS011;5712;48.858;9.206;2023-06-22T06:24:46;8.93;;;8.00;;
11313;SDS011;5712;48.858;9.206;2023-06-22T06:27:13;8.63;;;7.73;;
11313;SDS011;5712;48.858;9.206;2023-06-22T06:29:40;11.23;;;7.93;;
11313;SDS011;5712;48.858;9.206;2023-06-22T06:32:07;8.70;;;7.37;;
11313;SDS011;5712;48.858;9.206;2023-06-22T06:34:35;8.57;;;7.03;;
11313;SDS011;5712;48.858;9.206;2023-06-22T06:37:02;8.70;;;7.67;;
11313;SDS011;5712;48.858;9.206;2023-06-22T06:39:29;8.50;;;7.60;;
11313;SDS011;5712;48.858;9.206;2023-06-22T06:41:55;8.20;;;7.30;;
11313;SDS011;5712;48.858;9.206;2023-06-22T06:44:22;7.87;;;6.53;;
11313;SDS011;5712;48.858;9.206;2023-06-22T06:46:48;8.70;;;7.07;;
11313;SDS011;5712;48.858;9.206;2023-06-22T06:49:15;9.90;;;7.23;;
11313;SDS011;5712;48.858;9.206;2023-06-22T06:51:43;9.37;;;6.37;;
11313;SDS011;5712;48.858;9.206;2023-06-22T06:54:09;8.03;;;6.37;;
11313;SDS011;5712;48.858;9.206;2023-06-22T06:56:36;8.00;;;6.50;;
11313;SDS011;5712;48.858;9.206;2023-06-22T06:59:02;9.67;;;6.83;;
11313;SDS011;5712;48.858;9.206;2023-06-22T07:01:29;9.37;;;6.73;;
11313;SDS011;5712;48.858;9.206;2023-06-22T07:03:58;7.20;;;6.50;;
11313;SDS011;5712;48.858;9.206;2023-06-22T07:06:24;8.43;;;6.10;;
11313;SDS011;5712;48.858;9.206;2023-06-22T07:08:55;9.20;;;6.32;;
11313;SDS011;5712;48.858;9.206;2023-06-22T07:11:22;7.72;;;6.22;;
11313;SDS011;5712;48.858;9.206;2023-06-22T07:13:48;7.13;;;5.80;;
11313;SDS011;5712;48.858;9.206;2023-06-22T07:16:15;7.87;;;5.87;;
11313;SDS011;5712;48.858;9.206;2023-06-22T07:18:41;7.47;;;6.00;;
11313;SDS011;5712;48.858;9.206;2023-06-22T07:21:08;7.43;;;6.23;;
11313;SDS011;5712;48.858;9.206;2023-06-22T07:23:34;7.57;;;5.60;;
11313;SDS011;5712;48.858;9.206;2023-06-22T07:26:02;6.93;;;5.60;;
11313;SDS011;5712;48.858;9.206;2023-06-22T07:28:31;7.17;;;5.47;;
11313;SDS011;5712;48.858;9.206;2023-06-22T07:31:02;7.60;;;5.93;;
11313;SDS011;5712;48.858;9.206;2023-06-22T07:33:28;8.37;;;6.10;;
11313;SDS011;5712;48.858;9.206;2023-06-22T07:35:55;6.28;;;5.63;;
11313;SDS011;5712;48.858;9.206;2023-06-22T07:38:21;5.90;;;5.30;;
11313;SDS011;5712;48.858;9.206;2023-06-22T07:40:48;7.03;;;5.23;;
11313;SDS011;5712;48.858;9.206;2023-06-22T07:43:17;7.27;;;5.60;;
11313;SDS011;5712;48.858;9.206;2023-06-22T07:45:47;6.50;;;5.70;;
11313;SDS011;5712;48.858;9.206;2023-06-22T07:48:17;8.27;;;6.13;;
11313;SDS011;5712;48.858;9.206;2023-06-22T07:50:43;6.10;;;5.47;;
11313;SDS011;5712;48.858;9.206;2023-06-22T07:53:10;5.77;;;5.17;;
11313;SDS011;5712;48.858;9.206;2023-06-22T07:55:36;8.77;;;5.37;;
11313;SDS011;5712;48.858;9.206;2023-06-22T07:58:03;7.03;;;5.00;;
11313;SDS011;5712;48.858;9.206;2023-06-22T08:00:31;7.10;;;5.07;;
11313;SDS011;5712;48.858;9.206;2023-06-22T08:02:58;8.67;;;4.97;;
11313;SDS011;5712;48.858;9.206;2023-06-22T08:05:24;6.53;;;5.33;;
11313;SDS011;5712;48.858;9.206;2023-06-22T08:07:51;5.33;;;4.80;;
11313;SDS011;5712;48.858;9.206;2023-06-22T08:10:18;6.70;;;4.80;;
11313;SDS011;5712;48.858;9.206;2023-06-22T08:12:45;6.60;;;5.03;;
11313;SDS011;5712;48.858;9.206;2023-06-22T08:15:11;6.30;;;4.80;;
11313;SDS011;5712;48.858;9.206;2023-06-22T08:17:39;8.13;;;4.90;;
11313;SDS011;5712;48.858;9.206;2023-06-22T08:20:06;5.90;;;4.77;;
11313;SDS011;5712;48.858;9.206;2023-06-22T08:22:36;6.65;;;5.13;;
11313;SDS011;5712;48.858;9.206;2023-06-22T08:25:03;6.03;;;5.07;;
11313;SDS011;5712;48.858;9.206;2023-06-22T08:27:31;6.80;;;4.67;;
11313;SDS011;5712;48.858;9.206;2023-06-22T08:29:58;5.17;;;4.43;;
11313;SDS011;5712;48.858;9.206;2023-06-22T08:32:25;5.30;;;4.13;;
11313;SDS011;5712;48.858;9.206;2023-06-22T08:34:53;5.53;;;4.20;;
11313;SDS011;5712;48.858;9.206;2023-06-22T08:37:20;5.15;;;4.28;;
11313;SDS011;5712;48.858;9.206;2023-06-22T08:39:55;5.78;;;4.53;;
11313;SDS011;5712;48.858;9.206;2023-06-22T08:42:22;6.32;;;4.43;;
11313;SDS011;5712;48.858;9.206;2023-06-22T08:44:49;9.32;;;4.57;;
11313;SDS011;5712;48.858;9.206;2023-06-22T08:47:16;6.18;;;4.55;;
11313;SDS011;5712;48.858;9.206;2023-06-22T08:49:42;5.63;;;4.65;;
11313;SDS011;5712;48.858;9.206;2023-06-22T08:52:10;5.65;;;4.57;;
11313;SDS011;5712;48.858;9.206;2023-06-22T08:54:37;5.60;;;4.40;;
11313;SDS011;5712;48.858;9.206;2023-06-22T08:57:04;7.60;;;4.85;;
11313;SDS011;5712;48.858;9.206;2023-06-22T08:59:30;7.03;;;5.00;;
11313;SDS011;5712;48.858;9.206;2023-06-22T09:01:57;7.88;;;5.30;;
11313;SDS011;5712;48.858;9.206;2023-06-22T09:04:27;4.85;;;4.40;;
11313;SDS011;5712;48.858;9.206;2023-06-22T09:06:53;7.22;;;5.15;;
11313;SDS011;5712;48.858;9.206;2023-06-22T09:09:22;7.15;;;4.80;;
11313;SDS011;5712;48.858;9.206;2023-06-22T09:11:48;7.10;;;4.85;;
11313;SDS011;5712;48.858;9.206;2023-06-22T09:14:15;8.60;;;5.25;;
11313;SDS011;5712;48.858;9.206;2023-06-22T09:16:41;7.78;;;5.10;;
11313;SDS011;5712;48.858;9.206;2023-06-22T09:19:08;6.95;;;5.07;;
11313;SDS011;5712;48.858;9.206;2023-06-22T09:21:35;7.32;;;5.10;;
11313;SDS011;5712;48.858;9.206;2023-06-22T09:24:01;6.30;;;5.13;;
11313;SDS011;5712;48.858;9.206;2023-06-22T09:26:29;7.45;;;5.30;;
11313;SDS011;5712;48.858;9.206;2023-06-22T09:28:57;5.70;;;5.00;;
11313;SDS011;5712;48.858;9.206;2023-06-22T09:31:24;9.20;;;5.50;;
11313;SDS011;5712;48.858;9.206;2023-06-22T09:33:51;6.50;;;5.55;;
11313;SDS011;5712;48.858;9.206;2023-06-22T09:36:19;8.05;;;5.45;;
11313;SDS011;5712;48.858;9.206;2023-06-22T09:38:45;6.60;;;5.40;;
11313;SDS011;5712;48.858;9.206;2023-06-22T09:41:12;7.00;;;5.38;;
11313;SDS011;5712;48.858;9.206;2023-06-22T09:43:40;6.40;;;5.32;;
11313;SDS011;5712;48.858;9.206;2023-06-22T09:46:06;7.55;;;5.47;;
11313;SDS011;5712;48.858;9.206;2023-06-22T09:48:34;6.43;;;5.03;;
11313;SDS011;5712;48.858;9.206;2023-06-22T09:51:01;6.72;;;5.13;;
11313;SDS011;5712;48.858;9.206;2023-06-22T09:53:27;6.95;;;5.20;;
11313;SDS011;5712;48.858;9.206;2023-06-22T09:55:54;7.90;;;5.55;;
11313;SDS011;5712;48.858;9.206;2023-06-22T09:58:20;7.00;;;4.95;;
11313;SDS011;5712;48.858;9.206;2023-06-22T10:00:48;6.45;;;4.93;;
11313;SDS011;5712;48.858;9.206;2023-06-22T10:03:14;6.97;;;5.15;;
11313;SDS011;5712;48.858;9.206;2023-06-22T10:05:41;6.82;;;5.25;;
11313;SDS011;5712;48.858;9.206;2023-06-22T10:08:08;9.35;;;5.25;;
11313;SDS011;5712;48.858;9.206;2023-06-22T10:10:35;6.70;;;5.40;;
11313;SDS011;5712;48.858;9.206;2023-06-22T10:13:02;6.57;;;5.15;;
11313;SDS011;5712;48.858;9.206;2023-06-22T10:15:34;8.15;;;5.90;;
11313;SDS011;5712;48.858;9.206;2023-06-22T10:18:02;7.05;;;5.00;;
11313;SDS011;5712;48.858;9.206;2023-06-22T10:20:29;10.30;;;5.70;;
11313;SDS011;5712;48.858;9.206;2023-06-22T10:22:55;7.63;;;5.28;;
11313;SDS011;5712;48.858;9.206;2023-06-22T10:25:22;10.02;;;5.80;;
11313;SDS011;5712;48.858;9.206;2023-06-22T10:27:48;6.97;;;4.80;;
11313;SDS011;5712;48.858;9.206;2023-06-22T10:30:15;8.32;;;5.07;;
11313;SDS011;5712;48.858;9.206;2023-06-22T10:32:42;9.35;;;5.63;;
11313;SDS011;5712;48.858;9.206;2023-06-22T10:35:10;10.57;;;5.43;;
11313;SDS011;5712;48.858;9.206;2023-06-22T10:37:38;8.10;;;5.60;;
11313;SDS011;5712;48.858;9.206;2023-06-22T10:40:05;9.68;;;5.40;;
11313;SDS011;5712;48.858;9.206;2023-06-22T10:42:33;8.57;;;5.18;;
11313;SDS011;5712;48.858;9.206;2023-06-22T10:44:59;9.55;;;5.68;;
11313;SDS011;5712;48.858;9.206;2023-06-22T10:47:26;6.15;;;5.13;;
11313;SDS011;5712;48.858;9.206;2023-06-22T10:49:52;7.30;;;5.13;;
11313;SDS011;5712;48.858;9.206;2023-06-22T10:52:20;7.53;;;5.32;;
11313;SDS011;5712;48.858;9.206;2023-06-22T10:54:47;11.15;;;5.20;;
11313;SDS011;5712;48.858;9.206;2023-06-22T10:57:13;8.80;;;5.03;;
11313;SDS011;5712;48.858;9.206;2023-06-22T10:59:40;5.85;;;4.88;;
11313;SDS011;5712;48.858;9.206;2023-06-22T11:02:06;9.10;;;5.28;;
11313;SDS011;5712;48.858;9.206;2023-06-22T11:04:33;7.60;;;4.88;;
11313;SDS011;5712;48.858;9.206;2023-06-22T11:06:59;9.57;;;5.05;;
11313;SDS011;5712;48.858;9.206;2023-06-22T11:09:27;6.65;;;4.70;;
11313;SDS011;5712;48.858;9.206;2023-06-22T11:11:55;6.60;;;4.50;;
11313;SDS011;5712;48.858;9.206;2023-06-22T11:14:23;7.07;;;5.00;;
11313;SDS011;5712;48.858;9.206;2023-06-22T11:16:50;6.45;;;4.72;;
11313;SDS011;5712;48.858;9.206;2023-06-22T11:19:17;7.22;;;4.80;;
11313;SDS011;5712;48.858;9.206;2023-06-22T11:21:44;10.77;;;4.78;;
11313;SDS011;5712;48.858;9.206;2023-06-22T11:24:11;7.22;;;4.93;;
11313;SDS011;5712;48.858;9.206;2023-06-22T11:26:38;7.75;;;5.07;;
11313;SDS011;5712;48.858;9.206;2023-06-22T11:29:05;8.77;;;5.32;;
11313;SDS011;5712;48.858;9.206;2023-06-22T11:31:33;8.73;;;4.55;;
11313;SDS011;5712;48.858;9.206;2023-06-22T11:34:00;9.95;;;5.15;;
11313;SDS011;5712;48.858;9.206;2023-06-22T11:36:26;8.18;;;5.35;;
11313;SDS011;5712;48.858;9.206;2023-06-22T11:38:54;9.18;;;5.07;;
11313;SDS011;5712;48.858;9.206;2023-06-22T11:41:20;5.85;;;4.45;;
11313;SDS011;5712;48.858;9.206;2023-06-22T11:43:48;7.40;;;4.88;;
11313;SDS011;5712;48.858;9.206;2023-06-22T11:46:15;6.72;;;4.90;;
11313;SDS011;5712;48.858;9.206;2023-06-22T11:48:41;6.60;;;4.82;;
11313;SDS011;5712;48.858;9.206;2023-06-22T11:51:08;8.57;;;4.70;;
11313;SDS011;5712;48.858;9.206;2023-06-22T11:53:35;7.53;;;5.07;;
11313;SDS011;5712;48.858;9.206;2023-06-22T11:56:03;7.03;;;5.07;;
11313;SDS011;5712;48.858;9.206;2023-06-22T11:58:30;7.68;;;4.95;;
11313;SDS011;5712;48.858;9.206;2023-06-22T12:00:58;8.25;;;4.70;;
11313;SDS011;5712;48.858;9.206;2023-06-22T12:03:24;8.02;;;5.03;;
11313;SDS011;5712;48.858;9.206;2023-06-22T12:05:51;7.25;;;5.15;;
11313;SDS011;5712;48.858;9.206;2023-06-22T12:08:17;7.18;;;4.75;;
11313;SDS011;5712;48.858;9.206;2023-06-22T12:10:44;7.38;;;4.80;;
11313;SDS011;5712;48.858;9.206;2023-06-22T12:13:10;5.05;;;4.55;;
11313;SDS011;5712;48.858;9.206;2023-06-22T12:15:37;6.60;;;5.30;;
11313;SDS011;5712;48.858;9.206;2023-06-22T12:18:05;7.30;;;4.93;;
11313;SDS011;5712;48.858;9.206;2023-06-22T12:20:33;7.18;;;4.78;;
11313;SDS011;5712;48.858;9.206;2023-06-22T12:23:00;6.95;;;5.05;;
11313;SDS011;5712;48.858;9.206;2023-06-22T12:25:26;5.60;;;4.82;;
11313;SDS011;5712;48.858;9.206;2023-06-22T12:27:53;8.18;;;5.35;;
11313;SDS011;5712;48.858;9.206;2023-06-22T12:30:20;6.57;;;5.28;;
11313;SDS011;5712;48.858;9.206;2023-06-22T12:32:46;9.23;;;5.18;;
11313;SDS011;5712;48.858;9.206;2023-06-22T12:35:14;9.13;;;5.13;;
11313;SDS011;5712;48.858;9.206;2023-06-22T12:37:41;8.52;;;4.90;;
11313;SDS011;5712;48.858;9.206;2023-06-22T12:40:09;9.02;;;4.90;;
11313;SDS011;5712;48.858;9.206;2023-06-22T12:42:36;8.05;;;5.47;;
11313;SDS011;5712;48.858;9.206;2023-06-22T12:45:04;10.25;;;5.57;;
11313;SDS011;5712;48.858;9.206;2023-06-22T12:47:31;10.27;;;6.30;;
11313;SDS011;5712;48.858;9.206;2023-06-22T12:49:58;6.93;;;5.50;;
11313;SDS011;5712;48.858;9.206;2023-06-22T12:52:26;7.55;;;5.25;;
11313;SDS011;5712;48.858;9.206;2023-06-22T12:54:52;6.93;;;6.10;;
11313;SDS011;5712;48.858;9.206;2023-06-22T12:57:19;7.82;;;5.75;;
11313;SDS011;5712;48.858;9.206;2023-06-22T12:59:46;6.95;;;6.15;;
11313;SDS011;5712;48.858;9.206;2023-06-22T13:02:12;9.30;;;6.32;;
11313;SDS011;5712;48.858;9.206;2023-06-22T13:04:39;10.13;;;6.05;;
11313;SDS011;5712;48.858;9.206;2023-06-22T13:07:06;11.23;;;5.90;;
11313;SDS011;5712;48.858;9.206;2023-06-22T13:09:35;9.43;;;5.72;;
11313;SDS011;5712;48.858;9.206;2023-06-22T13:12:02;7.70;;;5.93;;
11313;SDS011;5712;48.858;9.206;2023-06-22T13:14:29;8.95;;;5.97;;
11313;SDS011;5712;48.858;9.206;2023-06-22T13:16:55;9.70;;;6.10;;
11313;SDS011;5712;48.858;9.206;2023-06-22T13:19:22;9.57;;;5.90;;
11313;SDS011;5712;48.858;9.206;2023-06-22T13:21:48;9.45;;;6.38;;
11313;SDS011;5712;48.858;9.206;2023-06-22T13:24:14;9.18;;;6.10;;
11313;SDS011;5712;48.858;9.206;2023-06-22T13:26:42;9.25;;;5.70;;
11313;SDS011;5712;48.858;9.206;2023-06-22T13:29:09;8.32;;;5.78;;
11313;SDS011;5712;48.858;9.206;2023-06-22T13:31:35;11.05;;;6.10;;
11313;SDS011;5712;48.858;9.206;2023-06-22T13:34:03;9.88;;;5.95;;
11313;SDS011;5712;48.858;9.206;2023-06-22T13:36:29;8.45;;;5.78;;
11313;SDS011;5712;48.858;9.206;2023-06-22T13:38:56;9.77;;;5.60;;
11313;SDS011;5712;48.858;9.206;2023-06-22T13:41:23;10.70;;;5.90;;
11313;SDS011;5712;48.858;9.206;2023-06-22T13:43:51;6.85;;;5.35;;
11313;SDS011;5712;48.858;9.206;2023-06-22T13:46:17;11.43;;;5.70;;
11313;SDS011;5712;48.858;9.206;2023-06-22T13:48:44;9.43;;;5.80;;
11313;SDS011;5712;48.858;9.206;2023-06-22T13:51:10;9.05;;;6.28;;
11313;SDS011;5712;48.858;9.206;2023-06-22T13:53:37;7.70;;;5.68;;
11313;SDS011;5712;48.858;9.206;2023-06-22T13:56:03;7.95;;;5.82;;
11313;SDS011;5712;48.858;9.206;2023-06-22T13:58:30;8.50;;;5.68;;
11313;SDS011;5712;48.858;9.206;2023-06-22T14:00:58;9.77;;;6.03;;
11313;SDS011;5712;48.858;9.206;2023-06-22T14:03:25;8.70;;;5.75;;
11313;SDS011;5712;48.858;9.206;2023-06-22T14:05:51;7.45;;;5.20;;
11313;SDS011;5712;48.858;9.206;2023-06-22T14:08:21;7.53;;;5.70;;
11313;SDS011;5712;48.858;9.206;2023-06-22T14:10:48;9.82;;;5.55;;
11313;SDS011;5712;48.858;9.206;2023-06-22T14:13:15;7.63;;;5.72;;
11313;SDS011;5712;48.858;9.206;2023-06-22T14:15:41;7.50;;;5.53;;
11313;SDS011;5712;48.858;9.206;2023-06-22T14:18:09;7.72;;;5.40;;
11313;SDS011;5712;48.858;9.206;2023-06-22T14:20:36;8.52;;;5.65;;
11313;SDS011;5712;48.858;9.206;2023-06-22T14:23:02;7.97;;;5.30;;
11313;SDS011;5712;48.858;9.206;2023-06-22T14:25:29;10.48;;;6.03;;
11313;SDS011;5712;48.858;9.206;2023-06-22T14:27:55;9.65;;;5.80;;
11313;SDS011;5712;48.858;9.206;2023-06-22T14:30:22;8.45;;;5.57;;
11313;SDS011;5712;48.858;9.206;2023-06-22T14:32:48;7.95;;;5.93;;
11313;SDS011;5712;48.858;9.206;2023-06-22T14:35:16;7.55;;;4.88;;
11313;SDS011;5712;48.858;9.206;2023-06-22T14:37:43;9.27;;;5.20;;
11313;SDS011;5712;48.858;9.206;2023-06-22T14:40:09;10.90;;;5.82;;
11313;SDS011;5712;48.858;9.206;2023-06-22T14:42:37;9.90;;;5.45;;
11313;SDS011;5712;48.858;9.206;2023-06-22T14:45:04;9.68;;;5.60;;
11313;SDS011;5712;48.858;9.206;2023-06-22T14:47:31;7.78;;;5.28;;
11313;SDS011;5712;48.858;9.206;2023-06-22T14:49:57;8.55;;;5.07;;
11313;SDS011;5712;48.858;9.206;2023-06-22T14:52:26;10.40;;;5.05;;
11313;SDS011;5712;48.858;9.206;2023-06-22T14:54:53;12.93;;;5.05;;
11313;SDS011;5712;48.858;9.206;2023-06-22T14:57:19;9.63;;;5.30;;
11313;SDS011;5712;48.858;9.206;2023-06-22T14:59:48;7.30;;;4.97;;